Saint John, VI (00830)

3:26 PM AST on March 30, 2017 (GMT -0400)
Chocolate Hole | | Change Station

Elev 300 ft 18.32 °N, 64.78 °W | Updated 27 seconds ago

Clear
Clear
82.2 °F
Feels Like 85 °F
N
0.2
Wind Variable Wind from NNW
Gusts 2.5 mph

Today
High -- | Low -- °F
--% Chance of Precip.
Yesterday
High -- | Low -- °F
Precip. -- in
Pressure 29.95 in
Visibility 10.0 miles
Clouds Clear
Heat Index 85 °F
Dew Point 67 °F
Humidity 60%
Rainfall 0.00 in
Snow Depth Not available.
6:14 AM 6:32 PM
Waxing Crescent, 10% visible
METAR TIST 301853Z 03015G18KT 10SM CLR 27/21 A2995 RMK AO2 SLP141 T02720211
Pressure 29.95 in
Visibility 10.0 miles
Clouds Clear
Heat Index 85 °F
Dew Point 67 °F
Humidity 60%
Rainfall 0.00 in
Snow Depth Not available.
6:14 AM 6:32 PM
Waxing Crescent, 10% visible
METAR TIST 301853Z 03015G18KT 10SM CLR 27/21 A2995 RMK AO2 SLP141 T02720211

Get Severe Weather Alerts

Thanks for signing up!

Be on the lookout for a verification email in your inbox.

You'll start receiving the daily forecast at 8 AM.

×

10-Day Weather Forecast

Almanac

Astronomy

Mar. 30, 2017 Rise Set
Actual Time
Civil Twilight
Nautical Twilight
Astronomical Twilight
Moon
Length of Visible Light
Length of Day
Tomorrow will be .
, % of the Moon is Illuminated

Today's Extremes

State Highs State Lows

Community

WunderPhotos

Upload Photos

1,962,540 photos uploaded!

WunderBlog® & News

Nearby

Air Quality

  Air Quality AQ Index Pollutant
Not available.

Snow Depth

Station Depth Elevation

Earthquake Activity

City Distance Mag. Time & Date
Minimum magnitude displayed is 2.5.

Earthquake Activity

City Distance Mag. Time & Date
Minimum magnitude displayed is 2.5.

Coastal Water Temperatures

Place Temperature

Stations

Nearby Weather Stations

Station Location Temp. Windchill Dew Point Humidity Wind Precip. Elev Updated Type
                   

Watches & Warnings

There are currently no watches in effect.